NCAR-RAP Real-Time Weather Data

Output produced by METARs form (23 June 2018  19:33 UTC)
found at http://weather.rap.ucar.edu/surface/
 
RJFF 231900Z AUTO 17004KT 9999 NCD 19/17 Q1006 RMK A2973
RJFF 231830Z AUTO 16004KT 9999 NCD 19/18 Q1006 RMK A2972
RJFF 231800Z AUTO 15006KT 9999 NCD 19/17 Q1006 RMK A2972
RJFF 231730Z AUTO 14005KT 9999 NCD 20/18 Q1006 RMK A2972
RJFF 231700Z AUTO 23003KT 200V270 9999 FEW018 20/17 Q1006 RMK A2972
RJFF 231630Z AUTO 23004KT 120V280 9999 FEW015 OVC017 21/18 Q1006 RMK A2972
RJFF 231600Z AUTO 25004KT 170V330 9999 BKN013 21/18 Q1006 RMK A2972
RJFF 231530Z AUTO 06002KT 9999 NCD 21/18 Q1006 RMK A2972
RJFF 231500Z AUTO 35003KT 9999 NCD 21/18 Q1006 RMK A2972
RJFF 231430Z AUTO VRB01KT 9999 NCD 21/17 Q1006 RMK A2972
RJFF 231400Z AUTO 31004KT 9999 FEW015 21/18 Q1006 RMK A2972
RJFF 231330Z 31004KT 9999 FEW020 BKN025 21/18 Q1006 RMK 1CU020 6CU025 A2972
RJFF 231300Z 32006KT 9999 FEW020 SCT025 21/18 Q1005 RMK 1CU020 3CU025 A2970
RJFF 231230Z 33005KT 9999 FEW020 22/17 Q1005 RMK 2CU020 A2970
RJFF 231200Z 32006KT 9999 FEW015 SCT020 BKN030 22/17 Q1005 RMK 1CU015 3CU020 5CU030 A2969
RJFF 231130Z 33004KT 9999 FEW015 SCT020 BKN040 23/18 Q1005 RMK 1CU015 4CU020 5SC040 A2968
RJFF 231100Z VRB03KT 9999 FEW015 BKN040 23/17 Q1005 RMK 1CU015 5SC040 A2968
RJFF 231030Z VRB02KT 9999 FEW015 SCT025 BKN040 23/17 Q1005 RMK 1CU015 3CU025 6SC040 A2968
RJFF 231000Z 29004KT 240V320 9999 FEW015 SCT045 BKN070 23/17 Q1004 RMK 1CU015 4SC045 7AC070 A2967
RJFF 230930Z 31005KT 9999 FEW015 SCT045 BKN070 23/17 Q1004 RMK 1CU015 3SC045 7AC070 A2966
RJFF 230900Z 30004KT 260V340 9999 FEW015 SCT050 BKN070 23/17 Q1004 RMK 1CU015 3SC050 7AC070 A2966
RJFF 230830Z 34004KT 280V030 9999 FEW015 BKN070 BKN/// 23/17 Q1003
RJFF 230800Z 33003KT 260V060 9999 FEW020 SCT060 BKN070 23/17 Q1004 RMK 1CU020 3SC060 6AC070 A2965
RJFF 230730Z 35007KT 330V050 9999 FEW020 SCT060 BKN/// 23/18 Q1003
RJFF 230700Z 32006KT 280V360 9999 FEW015 SCT035 BKN060 22/17 Q1004 RMK 1CU015 3CU035 6SC060 A2967
RJFF 230630Z 31007KT 270V340 9999 FEW015 SCT035 BKN060 22/17 Q1005 RMK 1CU015 3CU035 6SC060 A2968
RJFF 230600Z 31007KT 9999 FEW015 SCT035 BKN060 22/18 Q1004 RMK 1CU015 4CU035 6SC060 A2967
RJFF 230530Z 29007KT 9999 FEW015 SCT060 BKN080 23/18 Q1004 RMK 1CU015 3SC060 6AC080 A2966
RJFF 230500Z 32005KT 280V010 9999 FEW015 BKN060 BKN080 22/18 Q1004 RMK 1CU015 6SC060 7AC080 A2966
RJFF 230430Z 28005KT 250V320 9999 FEW010 SCT025 BKN060 22/17 Q1004 RMK 1ST010 3CU025 5SC060 A2967
RJFF 230400Z 30007KT 270V330 9999 FEW010 SCT025 BKN060 22/18 Q1004 RMK 1ST010 4CU025 5SC060 A2967
RJFF 230330Z 30006KT 260V340 9999 FEW010 SCT025 BKN060 22/18 Q1005 RMK 1ST010 4CU025 5SC060 A2968
RJFF 230300Z 32007KT 290V360 9999 FEW010 SCT015 BKN025 22/18 Q1005 RMK 1ST010 3CU015 5CU025 A2969
RJFF 230230Z 31008KT 9999 FEW010 SCT015 BKN020 22/18 Q1005 RMK 1ST010 3CU015 5CU020 A2969
RJFF 230200Z 30009KT 260V340 9999 FEW005 BKN020 BKN080 22/18 Q1005 RMK 1ST005 5CU020 6AC080 A2968
RJFF 230130Z VRB04KT 9999 FEW005 BKN020 BKN080 22/18 Q1005 RMK 1ST005 5CU020 6AC080 A2969
RJFF 230100Z 17003KT 140V200 9999 -RA FEW005 SCT020 BKN080 21/17 Q1005 RMK 1ST005 4CU020 6AC080 A2970
RJFF 230030Z 20004KT 130V230 9999 -RA FEW005 SCT030 BKN080 21/16 Q1005 RMK 1ST005 3CU030 6AC080 A2969
RJFF 230000Z 13005KT 090V160 9999 -RA FEW005 BKN080 BKN100 21/17 Q1005 RMK 1ST005 5AC080 6AC100 A2970
RJFF 222330Z 17007KT 9999 -RA FEW005 SCT015 BKN070 21/16 Q1006 RMK 1ST005 3CU015 6AC070 A2971
RJFF 222300Z 15007KT 9999 -RA FEW005 SCT010 BKN070 21/16 Q1005 RMK 1ST005 3ST010 6AC070 A2970
RJFF 222230Z 14006KT 9999 -RA FEW010 SCT050 BKN070 21/17 Q1005 RMK 2ST010 3SC050 6AC070 A2968
RJFF 222200Z 13005KT 9999 -RA FEW015 SCT070 BKN100 22/17 Q1004 RMK 1CU015 3AC070 7AC100 A2967
RJFF 222130Z 21003KT 160V260 9999 -RA FEW015 SCT080 BKN100 22/17 Q1005 RMK 1CU015 3AC080 6AC100 A2968
RJFF 222100Z 19007KT 160V260 9999 -RA FEW010 SCT080 BKN100 21/17 Q1004 RMK 1ST010 3AC080 6AC100 A2967
RJFF 222030Z AUTO 15008KT 9999 -RA FEW044 SCT070 BKN090 21/17 Q1004 RMK A2966
RJFF 222000Z AUTO 15009KT 9999 -RA NSC 22/18 Q1004 RMK A2966
RJFF 221930Z AUTO 15008KT 9999 -RA NSC 22/19 Q1004 RMK A2966
RJFF 221900Z AUTO 16009KT 9999 -RA NSC 23/18 Q1004 RMK A2966
RJFF 221830Z AUTO VRB02KT 9999 NSC 23/19 Q1004 RMK A2966
RJFF 221800Z AUTO 32003KT 9999 NSC 24/19 Q1004 RMK A2967
RJFF 221730Z AUTO 34003KT 9999 NSC 24/19 Q1005 RMK A2968
RJFF 221700Z AUTO VRB02KT 9999 NSC 24/18 Q1005 RMK A2968
RJFF 221630Z AUTO VRB02KT 9999 NSC 24/18 Q1005 RMK A2968
RJFF 221600Z AUTO 17004KT 120V200 9999 NSC 23/19 Q1005 RMK A2969
RJFF 221530Z AUTO 16003KT 9999 NSC 23/20 Q1005 RMK A2969
RJFF 221500Z AUTO VRB02KT 9999 NSC 24/20 Q1005 RMK A2970
RJFF 221430Z AUTO 35003KT 9999 NSC 24/20 Q1006 RMK A2972
RJFF 221400Z AUTO VRB01KT 9999 NSC 24/20 Q1007 RMK A2974
RJFF 221330Z 09003KT 060V120 CAVOK 24/20 Q1007 RMK A2975
RJFF 221300Z VRB01KT CAVOK 24/20 Q1007 RMK A2976
RJFF 221230Z VRB01KT CAVOK 24/20 Q1007 RMK A2976
RJFF 221200Z VRB02KT CAVOK 24/20 Q1007 RMK A2976
RJFF 221130Z 33004KT 300V360 CAVOK 24/20 Q1007 RMK A2976
RJFF 221100Z 31005KT 230V010 CAVOK 24/20 Q1007 RMK A2976
RJFF 221030Z 33005KT 290V010 CAVOK 24/20 Q1007 RMK A2976
RJFF 221000Z 32005KT 270V350 CAVOK 24/20 Q1007 RMK A2975
RJFF 220930Z 29005KT 250V330 CAVOK 24/20 Q1007 RMK A2975
RJFF 220900Z 30007KT 260V320 CAVOK 25/20 Q1007 RMK A2974
RJFF 220830Z 31008KT CAVOK 25/20 Q1007 RMK A2974
RJFF 220800Z 31008KT CAVOK 26/19 Q1007 RMK A2974
RJFF 220730Z 30009KT 270V340 9999 FEW045 BKN/// 25/19 Q1007
RJFF 220700Z 31009KT 9999 FEW040 BKN/// 26/19 Q1007 RMK 1CU040 A2974
RJFF 220630Z 29010KT 9999 FEW035 BKN/// 26/19 Q1007
RJFF 220600Z 31007KT 280V350 9999 FEW030 BKN/// 29/17 Q1006 RMK 1CU030 A2973
RJFF 220530Z 33010KT 9999 FEW040 BKN/// 29/18 Q1006
RJFF 220500Z 33010KT 9999 FEW035 BKN/// 29/18 Q1006 RMK 1CU035 A2973
RJFF 220430Z 33011KT 9999 FEW035 BKN/// 29/18 Q1006
RJFF 220400Z 33012KT 9999 FEW030 BKN/// 29/17 Q1007
RJFF 220330Z 33011KT 9999 FEW030 BKN/// 29/17 Q1007
RJFF 220300Z 33011KT 300V020 9999 FEW030 BKN/// 29/17 Q1007
RJFF 220230Z 33010KT 9999 FEW030 BKN/// 29/17 Q1008 RMK 1CU030 A2977
RJFF 220200Z VRB04KT 9999 FEW030 BKN/// 29/14 Q1008 RMK 1CU030 A2978
RJFF 220130Z VRB03KT 9999 FEW030 29/15 Q1008 RMK 1CU030 A2978
RJFF 220100Z VRB03KT 9999 FEW030 28/15 Q1008 RMK 1CU030 A2979
RJFF 220030Z 17003KT 110V230 9999 FEW030 SCT/// 27/17 Q1009
RJFF 220000Z VRB02KT 9999 FEW025 BKN/// 26/19 Q1009
RJFF 212330Z 15004KT 110V200 CAVOK 25/18 Q1009 RMK A2981
RJFF 212300Z 16005KT 100V180 CAVOK 24/19 Q1009 RMK A2981
RJFF 212230Z 17005KT CAVOK 23/19 Q1009 RMK A2981
RJFF 212200Z 14004KT CAVOK 22/19 Q1009 RMK A2981
RJFF 212130Z 13004KT CAVOK 22/18 Q1009 RMK A2980
RJFF 212100Z 15006KT CAVOK 21/18 Q1009 RMK A2980
RJFF 212030Z AUTO 14003KT 120V180 9999 NCD 21/18 Q1009 RMK A2979
RJFF 212000Z AUTO 15004KT 9999 NCD 21/18 Q1008 RMK A2979
RJFF 211930Z AUTO VRB02KT 9999 NCD 21/18 Q1008 RMK A2979
RJFF 211900Z AUTO VRB02KT 9999 NCD 21/18 Q1008 RMK A2979
RJFF 211830Z AUTO 13002KT 9999 NCD 22/18 Q1008 RMK A2978
RJFF 211800Z AUTO 14004KT 9999 NCD 22/18 Q1008 RMK A2977
RJFF 211730Z AUTO 12002KT 9999 NCD 22/19 Q1008 RMK A2978
RJFF 211700Z AUTO VRB01KT 9999 NCD 22/19 Q1008 RMK A2978
RJFF 211630Z AUTO 11002KT 9999 NCD 22/18 Q1008 RMK A2978
RJFF 211600Z AUTO 12003KT 9999 NCD 22/18 Q1008 RMK A2978
RJFF 211530Z AUTO 12003KT 9999 NCD 22/18 Q1008 RMK A2979
RJFF 211500Z AUTO 11003KT 9999 NCD 22/18 Q1009 RMK A2980
RJFF 211430Z AUTO 10003KT 070V130 9999 NCD 22/18 Q1009 RMK A2980
RJFF 211400Z AUTO VRB02KT 9999 NCD 23/18 Q1009 RMK A2980
RJFF 211330Z 07002KT 9999 FEW040 23/19 Q1009 RMK 1CU040 A2980
RJFF 211300Z 06004KT 010V110 9999 FEW040 23/19 Q1008 RMK 1CU040 A2979
RJFF 211230Z 36005KT 330V050 9999 FEW040 24/19 Q1008 RMK 1CU040 A2979
RJFF 211200Z 06005KT 020V110 9999 FEW040 24/19 Q1008 RMK 1CU040 A2977
RJFF 211130Z 34003KT 310V050 9999 FEW040 25/19 Q1007 RMK 1CU040 A2976
RJFF 211100Z 34004KT 300V060 9999 FEW040 25/18 Q1007 RMK 1CU040 A2975
RJFF 211030Z 33005KT 9999 FEW040 BKN/// 25/19 Q1007
RJFF 211000Z 34006KT 9999 FEW040 BKN/// 25/18 Q1007 RMK 1CU040 A2974
RJFF 210930Z 32005KT 280V360 9999 FEW040 BKN/// 26/19 Q1007 RMK 1CU040 A2974
RJFF 210900Z 34006KT 310V030 9999 FEW035 BKN/// 27/17 Q1006
RJFF 210830Z 34007KT 9999 FEW035 BKN/// 27/16 Q1006
RJFF 210800Z 34008KT 290V020 9999 FEW035 BKN/// 27/17 Q1006 RMK 1CU035 A2972